Time;durP1;ratioP1;P1;durP2;ratioP2;P2;SDS_P1;SDS_P2;PMS_P1;PMS_P2;Temp;Humidity;BMP_temperature;BMP_pressure;BME280_temperature;BME280_humidity;BME280_pressure;Samples;Min_cycle;Max_cycle;Signal;HPM_P1;HPM_P2
2021/05/23 00:00:30;;;;;;;1.52;0.90;;;13.40;99.90;;;;;;5132827;27;20655;-80
2021/05/23 00:03:00;;;;;;;2.08;0.90;;;13.40;99.90;;;;;;5132828;27;20166;-81
2021/05/23 00:05:29;;;;;;;1.67;0.80;;;13.40;99.90;;;;;;5114498;27;20554;-81
2021/05/23 00:08:02;;;;;;;2.22;0.90;;;13.30;99.90;;;;;;5132435;27;20566;-81
2021/05/23 00:10:29;;;;;;;2.33;0.70;;;13.30;99.90;;;;;;5132882;27;20206;-79
2021/05/23 00:12:57;;;;;;;1.85;0.90;;;13.20;99.90;;;;;;5132537;27;20170;-80
2021/05/23 00:15:29;;;;;;;1.42;0.80;;;13.20;99.90;;;;;;5131102;27;20185;-82
2021/05/23 00:17:55;;;;;;;1.50;0.70;;;13.20;99.90;;;;;;5132108;27;20178;-82
2021/05/23 00:20:22;;;;;;;2.53;0.70;;;13.10;99.90;;;;;;5132722;27;20712;-82
2021/05/23 00:22:48;;;;;;;2.17;0.70;;;13.10;99.90;;;;;;5131439;28;20564;-82
2021/05/23 00:25:21;;;;;;;4.00;1.00;;;13.00;99.90;;;;;;5128284;22;20219;-74
2021/05/23 00:27:47;;;;;;;1.23;0.55;;;12.90;99.90;;;;;;5071299;28;20175;-74
2021/05/23 00:30:15;;;;;;;2.63;0.90;;;12.80;99.90;;;;;;5071676;28;20625;-74
2021/05/23 00:32:41;;;;;;;1.20;0.68;;;12.80;99.90;;;;;;5087120;28;20913;-74
2021/05/23 00:35:08;;;;;;;1.70;0.70;;;12.70;99.90;;;;;;5071471;28;20195;-74
2021/05/23 00:37:34;;;;;;;1.35;0.70;;;12.70;99.90;;;;;;5071454;28;21318;-74
2021/05/23 00:40:00;;;;;;;2.50;0.80;;;12.70;99.90;;;;;;5071494;28;20196;-74
2021/05/23 00:42:26;;;;;;;1.20;0.80;;;12.70;99.90;;;;;;5053770;28;21137;-75
2021/05/23 00:44:53;;;;;;;1.33;0.60;;;12.70;99.90;;;;;;5070188;28;20571;-74
2021/05/23 00:47:19;;;;;;;2.50;0.68;;;12.70;99.90;;;;;;5071221;28;20173;-74
2021/05/23 00:49:45;;;;;;;1.30;0.60;;;12.60;99.90;;;;;;5070184;28;20550;-74
2021/05/23 00:52:12;;;;;;;1.23;0.68;;;12.60;99.90;;;;;;5070199;28;20996;-74
2021/05/23 00:54:38;;;;;;;1.67;0.70;;;12.60;99.90;;;;;;5069852;28;20559;-75
2021/05/23 00:57:05;;;;;;;2.25;0.95;;;12.60;99.90;;;;;;5069966;28;20232;-75
2021/05/23 00:59:32;;;;;;;2.70;0.77;;;12.50;99.90;;;;;;5071069;28;20254;-74
2021/05/23 01:01:58;;;;;;;1.80;0.75;;;12.50;99.90;;;;;;5070045;28;20176;-74
2021/05/23 01:04:24;;;;;;;1.60;0.80;;;12.50;99.90;;;;;;5069956;28;20172;-75
2021/05/23 01:06:50;;;;;;;2.23;0.90;;;12.40;99.90;;;;;;5069701;28;20193;-75
2021/05/23 01:09:16;;;;;;;1.40;0.70;;;12.40;99.90;;;;;;5069973;28;20574;-75
2021/05/23 01:11:42;;;;;;;2.50;1.10;;;12.50;99.90;;;;;;5071188;28;20239;-75
2021/05/23 01:14:42;;;;;;;1.93;0.70;;;12.50;99.90;;;;;;5071114;28;20165;-75
2021/05/23 01:17:11;;;;;;;2.72;0.70;;;12.50;99.90;;;;;;5069615;28;20176;-74
2021/05/23 01:20:08;;;;;;;2.05;0.80;;;12.50;99.90;;;;;;5069683;28;20342;-74
2021/05/23 01:22:39;;;;;;;1.02;0.60;;;12.50;99.90;;;;;;5069638;28;20713;-74
2021/05/23 01:25:19;;;;;;;2.85;1.02;;;12.50;99.90;;;;;;5070731;28;20196;-74
2021/05/23 01:27:49;;;;;;;1.85;0.80;;;12.50;99.90;;;;;;5074434;28;20168;-74
2021/05/23 01:30:23;;;;;;;1.58;0.70;;;12.50;99.90;;;;;;5074558;28;20510;-74
2021/05/23 01:32:54;;;;;;;1.33;0.60;;;12.50;99.90;;;;;;5074494;28;20187;-74
2021/05/23 01:35:31;;;;;;;1.50;0.70;;;12.40;99.90;;;;;;5074499;28;20180;-74
2021/05/23 01:38:00;;;;;;;2.20;0.68;;;12.50;99.90;;;;;;5056120;28;20164;-75
2021/05/23 01:40:33;;;;;;;1.25;0.57;;;12.40;99.90;;;;;;5074423;28;20636;-75
2021/05/23 01:42:59;;;;;;;1.00;0.50;;;12.40;99.90;;;;;;5074283;28;20168;-74
2021/05/23 01:45:26;;;;;;;1.83;0.60;;;12.40;99.90;;;;;;5073023;28;20223;-75
2021/05/23 01:47:52;;;;;;;1.10;0.60;;;12.40;99.90;;;;;;5074069;28;20259;-75
2021/05/23 01:50:18;;;;;;;1.38;0.65;;;12.40;99.90;;;;;;5074149;28;20172;-75
2021/05/23 01:52:50;;;;;;;1.20;0.60;;;12.40;99.90;;;;;;5074098;28;20294;-75
2021/05/23 01:55:16;;;;;;;1.20;1.08;;;12.40;99.90;;;;;;5056236;28;20192;-75
2021/05/23 01:57:43;;;;;;;1.20;0.50;;;12.40;99.90;;;;;;5073853;28;20306;-74
2021/05/23 02:00:10;;;;;;;1.35;0.80;;;12.40;99.90;;;;;;5072913;28;20652;-75
2021/05/23 02:02:37;;;;;;;1.27;0.55;;;12.50;99.90;;;;;;5072687;28;20211;-74
2021/05/23 02:05:04;;;;;;;1.50;0.60;;;12.50;99.90;;;;;;5073999;28;21027;-75
2021/05/23 02:07:30;;;;;;;1.10;0.77;;;12.50;99.90;;;;;;5072480;28;20563;-75
2021/05/23 02:09:56;;;;;;;1.30;0.70;;;12.50;99.90;;;;;;5073469;28;20179;-74
2021/05/23 02:12:22;;;;;;;2.22;0.60;;;12.60;99.90;;;;;;5072886;28;20521;-74
2021/05/23 02:14:48;;;;;;;2.33;0.57;;;12.60;99.90;;;;;;5070245;28;20204;-74
2021/05/23 02:17:13;;;;;;;1.43;0.63;;;12.70;99.90;;;;;;5070452;28;20168;-74
2021/05/23 02:19:43;;;;;;;1.60;0.70;;;12.70;99.90;;;;;;5070480;28;20198;-74
2021/05/23 02:22:09;;;;;;;1.85;0.60;;;12.80;99.90;;;;;;5070427;28;20177;-74
2021/05/23 02:24:35;;;;;;;1.10;0.50;;;12.90;99.90;;;;;;5070119;28;20214;-74
2021/05/23 02:27:00;;;;;;;1.10;0.60;;;12.90;99.90;;;;;;5071537;28;20168;-74
2021/05/23 02:29:26;;;;;;;2.30;0.70;;;12.90;99.90;;;;;;5073648;28;20639;-74
2021/05/23 02:31:52;;;;;;;1.60;0.60;;;13.00;99.90;;;;;;5073563;28;20168;-75
2021/05/23 02:34:17;;;;;;;1.10;0.63;;;13.00;99.90;;;;;;5073669;28;20227;-75
2021/05/23 02:36:43;;;;;;;1.40;0.60;;;13.00;99.90;;;;;;5072877;28;20211;-75
2021/05/23 02:39:09;;;;;;;1.40;0.53;;;13.00;99.90;;;;;;5073345;28;20676;-75
2021/05/23 02:41:35;;;;;;;1.60;0.60;;;13.10;99.90;;;;;;5073262;28;20168;-75
2021/05/23 02:44:00;;;;;;;1.10;0.50;;;13.10;99.90;;;;;;5073213;28;20226;-75
2021/05/23 02:46:26;;;;;;;1.10;0.60;;;13.10;99.90;;;;;;5072903;28;20541;-75
2021/05/23 02:48:52;;;;;;;1.17;0.50;;;13.10;99.90;;;;;;5071862;28;20939;-75
2021/05/23 02:51:18;;;;;;;1.77;0.57;;;13.20;99.90;;;;;;5073063;28;20168;-75
2021/05/23 02:53:43;;;;;;;2.50;0.53;;;13.20;99.90;;;;;;5072974;28;20189;-75
2021/05/23 02:56:09;;;;;;;1.00;0.50;;;13.20;99.90;;;;;;5072847;28;20187;-75
2021/05/23 02:58:34;;;;;;;2.33;0.57;;;13.20;99.90;;;;;;5071528;28;20196;-75
2021/05/23 03:01:00;;;;;;;1.53;0.60;;;13.20;99.90;;;;;;5071606;28;20179;-75
2021/05/23 03:03:26;;;;;;;1.60;0.57;;;13.10;99.90;;;;;;5072769;28;20164;-75
2021/05/23 03:05:52;;;;;;;1.07;0.50;;;13.20;99.90;;;;;;5071262;28;20185;-76
2021/05/23 03:08:17;;;;;;;1.10;0.50;;;13.10;99.90;;;;;;5072540;28;20196;-75
2021/05/23 03:10:51;;;;;;;1.20;0.60;;;13.10;99.90;;;;;;5072784;28;20172;-74
2021/05/23 03:13:17;;;;;;;2.13;0.70;;;13.10;99.90;;;;;;5072587;28;20979;-75
2021/05/23 03:15:43;;;;;;;1.50;0.70;;;13.10;99.90;;;;;;5072522;28;20228;-75
2021/05/23 03:18:10;;;;;;;2.08;0.68;;;13.10;99.90;;;;;;5072328;28;20921;-74
2021/05/23 03:20:38;;;;;;;1.30;0.60;;;13.10;99.90;;;;;;5072557;28;20160;-74
2021/05/23 03:23:04;;;;;;;1.95;1.10;;;13.10;99.90;;;;;;5072714;28;20168;-75
2021/05/23 03:25:30;;;;;;;1.17;0.70;;;13.10;99.90;;;;;;5071135;28;20204;-75
2021/05/23 03:27:58;;;;;;;2.35;0.70;;;13.10;99.90;;;;;;5070953;28;20972;-75
2021/05/23 03:30:28;;;;;;;1.20;0.60;;;13.10;99.90;;;;;;5070982;28;20259;-75
2021/05/23 03:32:54;;;;;;;2.05;0.70;;;13.10;99.90;;;;;;5072284;28;20165;-75
2021/05/23 03:35:20;;;;;;;1.97;0.67;;;13.20;99.90;;;;;;5053900;28;20566;-75
2021/05/23 03:37:46;;;;;;;1.83;0.63;;;13.10;99.90;;;;;;5070809;28;20628;-75
2021/05/23 03:40:15;;;;;;;1.23;0.60;;;13.10;99.90;;;;;;5072134;28;20207;-75
2021/05/23 03:42:42;;;;;;;1.10;0.60;;;13.10;99.90;;;;;;5070851;28;20596;-75
2021/05/23 03:45:08;;;;;;;1.33;0.60;;;13.10;99.90;;;;;;5070846;28;20184;-75
2021/05/23 03:47:34;;;;;;;1.98;0.60;;;13.10;99.90;;;;;;5071691;28;20601;-76
2021/05/23 03:50:00;;;;;;;1.10;0.60;;;13.10;99.90;;;;;;5071470;28;20624;-76
2021/05/23 03:52:26;;;;;;;1.53;0.70;;;13.10;99.90;;;;;;5070849;28;20171;-75
2021/05/23 03:54:52;;;;;;;1.00;0.57;;;13.10;99.90;;;;;;5071884;28;20599;-76
2021/05/23 03:57:17;;;;;;;1.20;0.60;;;13.10;99.90;;;;;;5071559;28;20612;-75
2021/05/23 03:59:43;;;;;;;1.53;0.50;;;13.10;99.90;;;;;;5071718;28;20675;-75
2021/05/23 04:02:09;;;;;;;1.67;0.60;;;13.10;99.90;;;;;;5070650;28;20188;-75
2021/05/23 04:04:56;;;;;;;1.13;0.60;;;13.10;99.90;;;;;;5071700;28;20167;-75
2021/05/23 04:07:23;;;;;;;1.00;0.52;;;13.10;99.90;;;;;;5071559;28;20607;-75
2021/05/23 04:09:50;;;;;;;1.00;0.50;;;13.10;99.90;;;;;;5071806;28;20577;-76
2021/05/23 04:12:50;;;;;;;1.15;0.57;;;13.10;99.90;;;;;;5070453;28;20168;-75
2021/05/23 04:15:10;;;;;;;2.97;0.60;;;13.10;99.90;;;;;;5069524;28;20269;-75
2021/05/23 04:17:36;;;;;;;1.20;0.50;;;13.10;99.90;;;;;;5071437;28;20542;-76
2021/05/23 04:20:09;;;;;;;1.15;0.40;;;13.10;99.90;;;;;;5071556;28;20236;-75
2021/05/23 04:22:35;;;;;;;1.30;0.57;;;13.10;99.90;;;;;;5071635;28;20164;-75
2021/05/23 04:25:05;;;;;;;1.00;0.50;;;13.10;99.90;;;;;;5071296;28;20234;-75
2021/05/23 04:27:31;;;;;;;1.80;0.57;;;13.10;99.90;;;;;;5071443;28;20621;-76
2021/05/23 04:29:56;;;;;;;1.90;0.60;;;13.10;99.90;;;;;;5071607;28;20211;-75
2021/05/23 04:32:22;;;;;;;1.20;0.50;;;13.10;99.90;;;;;;5071476;28;20172;-76
2021/05/23 04:34:48;;;;;;;1.30;0.60;;;13.10;99.90;;;;;;5071507;28;20286;-75
2021/05/23 04:37:15;;;;;;;1.70;0.50;;;13.10;99.90;;;;;;5071373;28;20331;-75
2021/05/23 04:39:43;;;;;;;1.23;0.50;;;13.10;99.90;;;;;;5071391;28;20283;-75
2021/05/23 04:42:09;;;;;;;0.98;0.55;;;13.10;99.90;;;;;;5070150;28;20165;-75
2021/05/23 04:44:34;;;;;;;1.30;0.70;;;13.00;99.90;;;;;;5071344;28;20191;-75
2021/05/23 04:47:00;;;;;;;1.63;0.60;;;13.00;99.90;;;;;;5069920;28;20168;-75
2021/05/23 04:49:26;;;;;;;1.35;0.63;;;13.00;99.90;;;;;;5071166;28;20187;-75
2021/05/23 04:51:52;;;;;;;1.27;0.80;;;13.00;99.90;;;;;;5071400;28;20612;-75
2021/05/23 04:54:18;;;;;;;2.00;0.90;;;13.00;99.90;;;;;;5071411;28;20306;-75
2021/05/23 04:56:43;;;;;;;1.20;0.70;;;13.00;99.90;;;;;;5069972;28;20591;-75
2021/05/23 04:59:09;;;;;;;2.13;0.80;;;13.00;99.90;;;;;;5071235;28;20652;-75
2021/05/23 05:01:35;;;;;;;1.03;0.63;;;13.00;99.90;;;;;;5073265;28;20161;-75
2021/05/23 05:04:01;;;;;;;1.63;0.67;;;13.00;99.90;;;;;;5073889;28;20164;-75
2021/05/23 05:06:27;;;;;;;1.75;0.80;;;13.00;99.90;;;;;;5074628;28;20765;-76
2021/05/23 05:08:53;;;;;;;1.70;0.70;;;13.00;99.90;;;;;;5073699;28;20169;-75
2021/05/23 05:11:18;;;;;;;1.00;0.50;;;13.00;99.90;;;;;;5074839;28;20227;-75
2021/05/23 05:13:44;;;;;;;1.00;0.50;;;13.00;99.90;;;;;;5074581;28;20251;-76
2021/05/23 05:16:11;;;;;;;2.17;0.60;;;13.00;99.90;;;;;;5073484;28;20651;-76
2021/05/23 05:18:36;;;;;;;1.15;0.52;;;13.00;99.90;;;;;;5074087;28;20204;-76
2021/05/23 05:21:03;;;;;;;2.27;0.70;;;13.00;99.90;;;;;;5075041;28;20164;-76
2021/05/23 05:23:29;;;;;;;1.55;0.57;;;13.00;99.90;;;;;;5073991;28;20566;-75
2021/05/23 05:25:55;;;;;;;2.00;0.70;;;13.00;99.90;;;;;;5074779;28;20200;-76
2021/05/23 05:28:20;;;;;;;2.60;0.70;;;13.00;99.90;;;;;;5075287;28;20912;-76
2021/05/23 05:30:46;;;;;;;1.30;0.63;;;13.10;99.90;;;;;;5075261;28;20164;-76
2021/05/23 05:33:12;;;;;;;4.10;0.90;;;13.10;99.90;;;;;;5082722;28;20172;-75
2021/05/23 05:35:38;;;;;;;1.87;0.70;;;13.10;99.90;;;;;;5091285;28;20210;-77
2021/05/23 05:38:03;;;;;;;1.73;0.90;;;13.10;99.90;;;;;;5088606;28;20181;-75
2021/05/23 05:40:29;;;;;;;2.30;0.80;;;13.00;99.90;;;;;;5063349;28;20168;-76
2021/05/23 05:42:55;;;;;;;2.90;1.00;;;13.00;99.90;;;;;;5087593;28;20168;-75
2021/05/23 05:45:20;;;;;;;1.77;0.80;;;13.00;99.90;;;;;;5084998;28;20231;-75
2021/05/23 05:47:46;;;;;;;2.17;0.80;;;13.10;99.90;;;;;;5083428;28;20179;-75
2021/05/23 05:50:12;;;;;;;4.17;0.90;;;13.00;99.90;;;;;;5082795;28;20178;-75
2021/05/23 05:52:38;;;;;;;4.30;0.70;;;13.10;99.90;;;;;;5075225;28;20967;-76
2021/05/23 05:55:05;;;;;;;1.50;0.90;;;13.10;99.90;;;;;;5075159;28;20237;-75
2021/05/23 05:57:30;;;;;;;4.55;0.80;;;13.10;99.90;;;;;;5074621;28;20614;-75
2021/05/23 05:59:56;;;;;;;2.80;1.00;;;13.10;99.90;;;;;;5074506;28;20664;-75
2021/05/23 06:02:22;;;;;;;3.80;1.37;;;13.10;99.90;;;;;;5074554;28;20170;-75
2021/05/23 06:04:49;;;;;;;2.30;1.20;;;13.20;99.90;;;;;;5072971;28;20180;-75
2021/05/23 06:07:14;;;;;;;4.90;1.45;;;13.20;99.90;;;;;;5073562;28;20632;-75
2021/05/23 06:09:40;;;;;;;1.80;1.10;;;13.30;99.90;;;;;;5073772;28;20184;-75
2021/05/23 06:12:06;;;;;;;3.33;2.10;;;13.40;99.90;;;;;;5073370;28;20646;-75
2021/05/23 06:14:32;;;;;;;2.70;0.80;;;13.50;99.90;;;;;;5072356;28;20180;-75
2021/05/23 06:16:57;;;;;;;10.67;1.07;;;13.70;99.90;;;;;;5073365;28;20167;-75
2021/05/23 06:19:23;;;;;;;1.93;0.87;;;13.90;99.90;;;;;;5073959;28;20234;-75
2021/05/23 06:21:49;;;;;;;2.20;0.90;;;14.00;99.90;;;;;;5073673;28;20164;-75
2021/05/23 06:24:15;;;;;;;2.73;0.83;;;14.20;99.90;;;;;;5087565;28;20533;-75
2021/05/23 06:26:41;;;;;;;2.30;1.17;;;14.40;99.90;;;;;;5090865;22;20650;-80
2021/05/23 06:29:06;;;;;;;1.93;0.70;;;14.60;99.90;;;;;;5035484;28;20181;-80
2021/05/23 06:31:32;;;;;;;3.33;0.80;;;14.90;99.90;;;;;;5053018;28;20568;-81
2021/05/23 06:33:58;;;;;;;4.03;0.80;;;15.20;99.90;;;;;;5035555;28;20200;-79
2021/05/23 06:36:24;;;;;;;2.13;1.00;;;15.50;99.90;;;;;;5056735;28;20606;-77
2021/05/23 06:38:50;;;;;;;1.57;0.80;;;15.70;99.90;;;;;;5036271;28;20266;-80
2021/05/23 06:41:16;;;;;;;4.03;1.20;;;15.90;99.90;;;;;;5035614;28;20577;-77
2021/05/23 06:43:42;;;;;;;5.17;1.10;;;16.00;99.90;;;;;;5031825;28;20602;-78
2021/05/23 06:46:08;;;;;;;2.47;0.70;;;16.10;99.90;;;;;;5032683;28;20243;-78
2021/05/23 06:48:33;;;;;;;3.00;0.80;;;16.30;99.90;;;;;;5030993;28;20177;-78
2021/05/23 06:51:00;;;;;;;1.30;0.80;;;16.50;99.90;;;;;;5032953;28;20173;-77
2021/05/23 06:53:26;;;;;;;3.00;0.73;;;16.70;99.90;;;;;;5031576;28;20668;-77
2021/05/23 06:55:52;;;;;;;3.10;0.70;;;17.10;99.90;;;;;;5033116;28;20696;-78
2021/05/23 06:58:18;;;;;;;3.73;0.80;;;17.90;99.90;;;;;;5049697;28;20647;-77
2021/05/23 07:00:44;;;;;;;2.17;0.77;;;18.80;99.90;;;;;;5052680;28;20169;-78
2021/05/23 07:03:11;;;;;;;1.70;0.70;;;19.90;99.90;;;;;;5052340;28;20229;-77
2021/05/23 07:05:37;;;;;;;2.40;0.70;;;20.90;99.90;;;;;;5051425;28;20192;-79
2021/05/23 07:08:05;;;;;;;2.03;0.70;;;21.70;99.90;;;;;;5050854;28;20559;-79
2021/05/23 07:10:31;;;;;;;4.13;0.90;;;22.40;99.90;;;;;;5052630;28;20587;-79
2021/05/23 07:12:57;;;;;;;1.83;0.60;;;23.10;99.90;;;;;;5053616;28;20563;-78
2021/05/23 07:15:22;;;;;;;1.60;0.60;;;23.90;99.90;;;;;;5055835;28;20192;-78
2021/05/23 07:17:50;;;;;;;2.37;0.67;;;24.80;99.90;;;;;;5052370;28;20622;-78
2021/05/23 07:20:16;;;;;;;3.53;0.63;;;25.70;99.90;;;;;;5035336;28;20654;-79
2021/05/23 07:22:42;;;;;;;3.20;0.70;;;26.40;99.90;;;;;;5032438;28;20596;-79
2021/05/23 07:25:08;;;;;;;5.23;0.90;;;26.90;99.90;;;;;;5030520;28;20247;-79
2021/05/23 07:27:34;;;;;;;4.40;0.80;;;27.50;99.50;;;;;;5014236;28;20620;-79
2021/05/23 07:30:00;;;;;;;2.50;0.80;;;28.20;99.20;;;;;;5032303;28;20672;-79
2021/05/23 07:32:25;;;;;;;2.57;0.70;;;28.90;97.90;;;;;;4998261;28;20184;-80
2021/05/23 07:34:51;;;;;;;2.53;0.70;;;29.40;95.60;;;;;;5032291;28;20548;-80
2021/05/23 07:37:17;;;;;;;2.00;0.60;;;29.90;93.70;;;;;;5030562;28;20166;-80
2021/05/23 07:39:44;;;;;;;1.80;0.60;;;30.30;91.20;;;;;;5030917;28;20210;-80
2021/05/23 07:42:10;;;;;;;2.23;0.60;;;30.60;88.40;;;;;;5032247;28;20189;-80
2021/05/23 07:44:36;;;;;;;2.63;0.80;;;31.00;85.90;;;;;;5030723;28;20642;-81
2021/05/23 07:47:03;;;;;;;1.77;0.50;;;31.30;82.70;;;;;;5031646;28;20604;-81
2021/05/23 07:49:28;;;;;;;2.20;0.60;;;31.60;80.10;;;;;;5032116;28;20570;-81
2021/05/23 07:51:54;;;;;;;2.43;0.80;;;31.90;78.50;;;;;;5034810;28;20202;-80
2021/05/23 07:54:20;;;;;;;2.43;0.73;;;32.30;75.70;;;;;;5030792;28;20158;-80
2021/05/23 07:56:45;;;;;;;3.83;0.97;;;32.70;73.80;;;;;;5013906;28;20205;-81
2021/05/23 07:59:12;;;;;;;2.23;0.73;;;32.90;70.40;;;;;;5031850;28;20197;-81
2021/05/23 08:01:37;;;;;;;3.77;0.90;;;32.90;66.70;;;;;;5030736;28;20173;-80
2021/05/23 08:04:03;;;;;;;2.67;0.70;;;33.00;63.80;;;;;;5031647;28;20573;-80
2021/05/23 08:06:31;;;;;;;3.00;0.77;;;32.90;60.40;;;;;;5031470;28;20188;-81
2021/05/23 08:08:57;;;;;;;2.40;0.60;;;32.70;58.60;;;;;;5014491;28;20574;-81
2021/05/23 08:11:22;;;;;;;1.37;0.70;;;32.60;57.40;;;;;;5031924;28;20570;-80
2021/05/23 08:13:48;;;;;;;4.20;0.67;;;32.60;56.60;;;;;;5031864;28;20216;-80
2021/05/23 08:16:14;;;;;;;2.60;0.53;;;32.60;57.60;;;;;;5030372;28;20264;-81
2021/05/23 08:18:40;;;;;;;2.63;1.20;;;32.90;57.20;;;;;;5031523;28;20692;-80
2021/05/23 08:21:06;;;;;;;1.87;0.70;;;33.10;56.30;;;;;;5031647;28;20573;-80
2021/05/23 08:23:33;;;;;;;3.00;0.60;;;33.10;54.40;;;;;;5030261;28;20176;-80
2021/05/23 08:25:59;;;;;;;1.63;0.70;;;32.70;52.90;;;;;;5031623;28;20216;-79
2021/05/23 08:28:26;;;;;;;1.83;0.60;;;32.30;52.20;;;;;;5035402;28;20590;-79
2021/05/23 08:30:52;;;;;;;1.40;0.60;;;31.70;50.40;;;;;;5014578;28;20927;-80
2021/05/23 08:33:18;;;;;;;3.27;0.73;;;31.20;50.10;;;;;;5037476;28;20596;-79
2021/05/23 08:35:44;;;;;;;1.57;0.60;;;30.60;49.90;;;;;;5042221;28;20204;-80
2021/05/23 08:38:10;;;;;;;1.70;0.70;;;30.40;50.90;;;;;;5042646;28;20173;-78
2021/05/23 08:40:36;;;;;;;1.70;0.60;;;30.30;51.30;;;;;;5045911;28;20599;-78
2021/05/23 08:43:04;;;;;;;2.33;0.60;;;30.30;51.80;;;;;;5052814;28;20620;-79
2021/05/23 08:45:30;;;;;;;2.33;0.67;;;30.30;51.30;;;;;;5048848;28;20731;-78
2021/05/23 08:47:56;;;;;;;1.60;0.80;;;30.50;51.60;;;;;;5043844;28;21177;-79
2021/05/23 08:50:31;;;;;;;1.40;0.53;;;30.80;52.20;;;;;;5040155;28;20243;-78
2021/05/23 08:53:08;;;;;;;1.77;0.50;;;31.10;51.10;;;;;;5038332;28;20680;-77
2021/05/23 08:55:38;;;;;;;3.80;0.87;;;31.50;51.10;;;;;;5043389;28;20623;-76
2021/05/23 08:58:05;;;;;;;1.50;0.60;;;31.90;51.20;;;;;;5035736;28;21209;-77
2021/05/23 09:00:32;;;;;;;2.07;0.60;;;32.40;51.80;;;;;;5036726;28;20630;-77
2021/05/23 09:03:00;;;;;;;2.20;0.80;;;32.90;50.10;;;;;;5034902;28;20666;-77
2021/05/23 09:05:38;;;;;;;2.30;0.60;;;33.20;48.90;;;;;;5044339;28;20599;-78
2021/05/23 09:08:11;;;;;;;3.40;1.00;;;33.30;46.80;;;;;;5037632;28;20578;-78
2021/05/23 09:10:38;;;;;;;3.70;1.73;;;33.10;45.60;;;;;;5040960;28;20624;-78
2021/05/23 09:13:04;;;;;;;2.60;1.23;;;32.90;46.50;;;;;;5037202;28;20581;-78
2021/05/23 09:15:31;;;;;;;1.93;0.70;;;32.40;44.30;;;;;;5035457;28;21008;-77
2021/05/23 09:18:04;;;;;;;2.07;0.80;;;31.60;43.60;;;;;;5034289;28;20675;-77
2021/05/23 09:20:30;;;;;;;1.80;0.70;;;30.80;43.30;;;;;;5034579;28;20584;-77
2021/05/23 09:22:58;;;;;;;3.23;0.80;;;30.00;44.10;;;;;;5033102;28;20579;-77
2021/05/23 09:25:33;;;;;;;1.30;0.60;;;29.50;44.30;;;;;;5034415;28;20610;-77
2021/05/23 09:27:59;;;;;;;2.10;0.60;;;28.90;44.20;;;;;;5034251;28;20563;-77
2021/05/23 09:30:29;;;;;;;1.30;0.60;;;28.30;44.40;;;;;;5034289;28;20627;-77
2021/05/23 09:32:56;;;;;;;1.20;0.50;;;27.80;44.70;;;;;;5034201;28;20564;-76
2021/05/23 09:35:24;;;;;;;1.77;0.60;;;27.20;44.60;;;;;;5034222;28;20665;-76
2021/05/23 09:37:57;;;;;;;1.33;0.50;;;26.70;44.70;;;;;;5033753;28;20585;-76
2021/05/23 09:40:25;;;;;;;1.20;0.50;;;26.40;45.20;;;;;;5033867;28;20576;-76
2021/05/23 09:42:53;;;;;;;4.30;0.80;;;26.30;46.10;;;;;;5035157;28;20638;-79
2021/05/23 09:45:21;;;;;;;5.50;0.60;;;26.10;45.50;;;;;;5041409;28;20703;-78
2021/05/23 09:48:07;;;;;;;1.57;0.70;;;25.80;45.90;;;;;;5032703;28;20569;-80
2021/05/23 09:50:34;;;;;;;4.37;0.70;;;25.40;45.70;;;;;;5015876;28;20584;-79
2021/05/23 09:53:00;;;;;;;1.40;0.60;;;25.10;46.20;;;;;;5033929;28;20556;-80
2021/05/23 09:55:27;;;;;;;1.53;0.60;;;24.80;46.50;;;;;;5033485;28;20901;-80
2021/05/23 09:57:53;;;;;;;1.77;0.63;;;24.50;46.70;;;;;;5032060;28;20576;-80
2021/05/23 10:00:19;;;;;;;1.60;0.60;;;24.30;47.00;;;;;;5032240;28;20626;-80
2021/05/23 10:02:59;;;;;;;1.30;0.63;;;24.20;47.50;;;;;;5016150;28;20166;-81
2021/05/23 10:05:26;;;;;;;2.10;0.80;;;24.30;48.00;;;;;;5033341;28;20619;-81
2021/05/23 10:07:52;;;;;;;1.60;0.60;;;24.50;48.70;;;;;;5033237;28;20560;-81
2021/05/23 10:10:18;;;;;;;1.97;0.60;;;24.70;48.40;;;;;;5033166;28;20707;-81
2021/05/23 10:12:45;;;;;;;1.30;0.50;;;25.10;49.30;;;;;;4999221;28;20564;-80
2021/05/23 10:15:12;;;;;;;1.40;0.60;;;25.70;49.80;;;;;;5033115;28;20603;-80
2021/05/23 10:17:40;;;;;;;1.60;0.60;;;26.40;49.70;;;;;;5032080;28;20675;-80
2021/05/23 10:20:09;;;;;;;1.60;0.60;;;27.10;49.60;;;;;;5035740;28;20565;-79
2021/05/23 10:22:39;;;;;;;2.07;0.77;;;27.60;48.90;;;;;;5033323;28;20597;-80
2021/05/23 10:25:14;;;;;;;2.00;0.50;;;27.70;47.10;;;;;;5031789;28;20583;-80
2021/05/23 10:27:44;;;;;;;1.30;0.50;;;27.50;46.10;;;;;;5031601;28;20568;-80
2021/05/23 10:30:11;;;;;;;3.10;0.60;;;27.30;46.30;;;;;;4998901;28;20980;-80
2021/05/23 10:32:38;;;;;;;3.43;0.87;;;27.30;46.70;;;;;;5033204;28;20560;-80
2021/05/23 10:35:26;;;;;;;1.77;0.60;;;27.50;47.70;;;;;;5032143;28;21128;-80
2021/05/23 10:37:53;;;;;;;2.37;0.60;;;28.00;47.40;;;;;;5031311;28;20615;-81
2021/05/23 10:40:30;;;;;;;1.20;0.50;;;28.30;47.70;;;;;;5031360;28;20580;-79
2021/05/23 10:42:58;;;;;;;1.20;0.60;;;28.60;46.70;;;;;;5032854;28;20564;-79
2021/05/23 10:45:27;;;;;;;1.80;0.60;;;29.00;46.90;;;;;;5038652;28;20619;-81
2021/05/23 10:47:55;;;;;;;1.13;0.40;;;29.20;46.50;;;;;;4998410;28;21059;-80
2021/05/23 10:50:50;;;;;;;1.80;0.50;;;29.10;45.80;;;;;;5014659;28;20627;-80
2021/05/23 10:53:16;;;;;;;1.77;0.40;;;28.70;44.60;;;;;;5027900;28;20641;-80
2021/05/23 10:55:55;;;;;;;2.07;0.50;;;28.10;44.40;;;;;;5015838;28;21218;-80
2021/05/23 10:58:26;;;;;;;1.23;0.50;;;27.40;42.80;;;;;;5030237;28;20173;-79
2021/05/23 11:00:59;;;;;;;3.10;0.73;;;26.60;42.80;;;;;;5014515;28;20703;-80
2021/05/23 11:03:27;;;;;;;4.63;0.60;;;25.80;43.00;;;;;;5031113;28;20573;-80
2021/05/23 11:06:04;;;;;;;2.20;0.80;;;25.00;43.70;;;;;;5030982;28;20596;-80
2021/05/23 11:08:31;;;;;;;1.70;0.60;;;24.50;44.30;;;;;;5014139;28;20592;-80
2021/05/23 11:10:57;;;;;;;2.10;0.60;;;24.00;44.70;;;;;;5031267;28;20572;-80
2021/05/23 11:13:26;;;;;;;1.30;0.50;;;23.60;44.90;;;;;;5031017;28;20630;-80
2021/05/23 11:15:53;;;;;;;1.37;0.60;;;23.30;45.80;;;;;;5031565;28;20638;-80
2021/05/23 11:18:21;;;;;;;3.33;0.73;;;23.20;46.40;;;;;;5031923;28;20561;-80
2021/05/23 11:21:01;;;;;;;2.80;0.50;;;23.20;46.50;;;;;;5014498;28;21174;-80
2021/05/23 11:23:29;;;;;;;1.30;0.43;;;23.20;45.70;;;;;;4998111;28;20573;-80
2021/05/23 11:26:11;;;;;;;1.27;0.50;;;23.00;46.10;;;;;;5030355;28;20612;-80
2021/05/23 11:28:39;;;;;;;2.07;0.50;;;22.90;46.40;;;;;;5014138;28;20620;-79
2021/05/23 11:31:07;;;;;;;2.43;0.50;;;22.80;46.60;;;;;;5030723;28;20576;-79
2021/05/23 11:33:33;;;;;;;1.20;0.40;;;23.00;47.80;;;;;;5015962;28;20585;-80
2021/05/23 11:35:59;;;;;;;2.17;0.50;;;23.30;48.50;;;;;;5030828;28;20603;-79
2021/05/23 11:38:36;;;;;;;1.23;0.40;;;23.50;47.80;;;;;;4997471;28;20208;-80
2021/05/23 11:41:03;;;;;;;1.90;0.60;;;23.60;47.10;;;;;;5030632;28;20568;-80
2021/05/23 11:43:30;;;;;;;1.00;0.43;;;23.60;47.10;;;;;;5030279;28;20565;-80
2021/05/23 11:46:04;;;;;;;1.03;0.50;;;23.60;46.80;;;;;;5037414;28;20619;-80
2021/05/23 11:48:35;;;;;;;1.63;0.50;;;23.40;46.50;;;;;;5033492;28;20578;-79
2021/05/23 11:51:03;;;;;;;1.40;0.60;;;23.20;46.50;;;;;;5017347;28;20575;-79
2021/05/23 11:53:56;;;;;;;2.30;0.60;;;23.10;46.90;;;;;;5033352;28;20582;-79
2021/05/23 11:56:28;;;;;;;2.37;0.70;;;22.90;46.90;;;;;;5031671;28;20615;-79
2021/05/23 11:58:59;;;;;;;2.20;0.90;;;22.80;47.20;;;;;;5013411;28;20676;-80
2021/05/23 12:01:33;;;;;;;3.33;1.00;;;22.60;47.20;;;;;;5014128;28;20683;-79
2021/05/23 12:04:06;;;;;;;4.73;1.30;;;22.50;47.80;;;;;;5030012;28;20576;-79
2021/05/23 12:06:40;;;;;;;4.80;0.67;;;22.40;47.70;;;;;;5013148;28;20620;-79
2021/05/23 12:09:09;;;;;;;5.03;1.47;;;22.40;48.60;;;;;;5029618;28;20627;-79
2021/05/23 12:11:43;;;;;;;1.97;0.70;;;22.50;49.10;;;;;;5032833;28;20564;-79
2021/05/23 12:14:28;;;;;;;2.40;0.80;;;22.60;49.20;;;;;;5031356;28;20564;-79
2021/05/23 12:17:12;;;;;;;2.70;0.80;;;22.70;48.80;;;;;;5030715;28;21070;-79
2021/05/23 12:19:59;;;;;;;1.37;0.57;;;22.70;48.00;;;;;;5029968;28;20988;-79
2021/05/23 12:22:32;;;;;;;1.37;0.80;;;22.80;48.50;;;;;;5013617;28;20611;-78
2021/05/23 12:25:04;;;;;;;2.07;0.60;;;22.70;48.10;;;;;;5029928;28;21037;-79
2021/05/23 12:27:32;;;;;;;2.07;0.60;;;22.60;47.80;;;;;;4997464;28;20667;-82
2021/05/23 12:30:27;;;;;;;2.90;1.00;;;22.50;47.80;;;;;;5030114;28;20711;-82
2021/05/23 12:32:58;;;;;;;2.43;1.00;;;22.40;47.80;;;;;;5030975;28;20166;-83
2021/05/23 12:35:35;;;;;;;1.80;0.80;;;22.40;48.60;;;;;;5029916;28;20626;-83
2021/05/23 12:38:02;;;;;;;1.50;0.60;;;22.50;48.40;;;;;;5029463;28;20672;-83
2021/05/23 12:40:30;;;;;;;3.00;0.80;;;22.50;48.60;;;;;;5031291;28;20573;-83
2021/05/23 12:43:10;;;;;;;1.60;0.60;;;22.50;48.30;;;;;;5031075;28;20572;-83
2021/05/23 12:45:36;;;;;;;2.27;0.70;;;22.50;47.50;;;;;;5038661;28;20682;-82
2021/05/23 12:48:06;;;;;;;3.53;0.90;;;22.40;47.50;;;;;;5033235;28;20588;-81
2021/05/23 12:50:53;;;;;;;2.17;0.60;;;22.40;47.60;;;;;;5031925;28;20616;-81
2021/05/23 12:53:33;;;;;;;1.37;0.70;;;22.30;47.90;;;;;;5013823;28;20564;-81